createdAt,value
2018-04-14T17:15:32.369Z,24.10
2018-04-14T17:18:03.450Z,24.40
2018-04-14T17:20:33.915Z,24.30
2018-04-14T17:23:04.245Z,24.10
2018-04-14T17:25:34.554Z,24.10
2018-04-14T17:28:04.948Z,24.20
2018-04-14T17:30:35.283Z,24.20
2018-04-14T17:33:05.790Z,24.20
2018-04-14T17:35:36.951Z,24.30
2018-04-14T17:38:07.253Z,24.30
2018-04-14T17:40:37.620Z,24.00
2018-04-14T17:43:07.970Z,23.90
2018-04-14T17:45:38.354Z,24.00
2018-04-14T17:48:08.788Z,24.00
2018-04-14T17:50:39.142Z,24.10
2018-04-14T17:53:09.451Z,24.20
2018-04-14T17:55:39.859Z,23.90
2018-04-14T17:58:10.203Z,23.90
2018-04-14T18:00:40.722Z,24.00
2018-04-14T18:03:17.726Z,23.90
2018-04-14T18:07:12.333Z,23.90
2018-04-14T18:09:42.663Z,23.90
2018-04-14T18:12:13.179Z,24.10
2018-04-14T18:14:43.507Z,24.00
2018-04-14T18:17:14.175Z,23.90
2018-04-14T18:19:45.274Z,23.90
2018-04-14T18:22:15.946Z,23.90
2018-04-14T18:24:46.286Z,23.90
2018-04-14T18:27:17.375Z,23.80
2018-04-14T18:29:47.735Z,23.80
2018-04-14T18:32:18.068Z,23.70
2018-04-14T18:34:49.198Z,23.80
2018-04-14T18:37:19.550Z,23.70
2018-04-14T18:39:50.658Z,23.70
2018-04-14T18:42:21.022Z,23.60
2018-04-14T18:44:51.347Z,23.70
2018-04-14T18:47:22.431Z,23.90
2018-04-14T18:49:52.790Z,23.90
2018-04-14T18:52:23.912Z,23.80
2018-04-14T18:54:54.362Z,23.70
2018-04-14T19:00:01.706Z,24.10
2018-04-14T19:02:36.893Z,23.60
2018-04-14T19:05:07.407Z,23.70
2018-04-14T19:07:37.761Z,23.60
2018-04-14T19:10:08.071Z,23.90
2018-04-14T19:12:38.538Z,23.60
2018-04-14T19:15:09.645Z,23.60
2018-04-14T19:17:40.338Z,23.60
2018-04-14T19:20:10.718Z,23.70
2018-04-14T19:22:41.906Z,23.60
2018-04-14T19:25:12.207Z,23.50
2018-04-14T19:27:43.298Z,23.60
2018-04-14T19:30:13.658Z,23.60
2018-04-14T19:32:43.987Z,23.60
2018-04-14T19:35:15.154Z,23.80
2018-04-14T19:37:45.618Z,23.40
2018-04-14T19:40:16.093Z,23.50
2018-04-14T19:42:47.163Z,23.50
2018-04-14T19:45:17.614Z,23.40
2018-04-14T19:47:48.607Z,23.60
2018-04-14T19:50:19.647Z,23.50
2018-04-14T19:52:50.759Z,23.40
2018-04-14T19:55:21.066Z,23.40
2018-04-14T19:57:51.358Z,23.30
2018-04-14T20:00:21.715Z,23.40
2018-04-14T20:02:52.081Z,23.50
2018-04-14T20:05:23.158Z,23.40
2018-04-14T20:07:53.643Z,23.40
2018-04-14T20:10:23.923Z,23.40
2018-04-14T20:12:54.237Z,23.40
2018-04-14T20:15:24.537Z,23.50
2018-04-14T20:17:56.148Z,23.40
2018-04-14T20:20:26.496Z,23.40
2018-04-14T20:22:56.871Z,23.40
2018-04-14T20:25:27.182Z,23.40
2018-04-14T20:27:57.534Z,23.30
2018-04-14T20:30:27.901Z,23.30
2018-04-14T20:32:58.250Z,23.40
2018-04-14T20:35:29.314Z,23.90
2018-04-14T20:37:59.659Z,23.40
2018-04-14T20:40:30.049Z,23.40
2018-04-14T20:43:00.349Z,23.20
2018-04-14T20:45:30.679Z,23.40
2018-04-14T20:48:01.851Z,23.50
2018-04-14T20:50:32.204Z,23.40
2018-04-14T20:53:02.510Z,23.40
2018-04-14T20:55:32.930Z,23.40
2018-04-14T20:58:03.262Z,23.40
2018-04-14T21:00:33.622Z,23.20
2018-04-14T21:03:04.034Z,23.20
2018-04-14T21:05:34.399Z,23.20
2018-04-14T21:08:04.706Z,23.10
2018-04-14T21:10:35.035Z,23.20
2018-04-14T21:13:05.379Z,23.10
2018-04-14T21:15:36.512Z,23.10
2018-04-14T21:18:07.118Z,23.10
2018-04-14T21:20:37.410Z,23.50
2018-04-14T21:23:07.986Z,23.10
2018-04-14T21:25:38.274Z,23.00
2018-04-14T21:28:08.610Z,23.30
2018-04-14T21:30:38.875Z,23.20
2018-04-14T21:33:09.234Z,23.10
2018-04-14T21:35:39.578Z,23.20
2018-04-14T21:38:09.920Z,23.00
2018-04-14T21:40:40.306Z,23.10
2018-04-14T21:43:10.667Z,23.20
2018-04-14T21:45:40.954Z,23.30
2018-04-14T21:48:11.326Z,23.10
2018-04-14T21:50:41.645Z,23.10
2018-04-14T21:53:12.035Z,23.10
2018-04-14T21:55:42.345Z,23.00
2018-04-14T21:58:13.438Z,23.10
2018-04-14T22:00:43.726Z,23.10
2018-04-14T22:03:14.032Z,23.10
2018-04-14T22:05:45.370Z,23.20
2018-04-14T22:08:16.514Z,23.00
2018-04-14T22:10:47.647Z,23.00
2018-04-14T22:13:17.975Z,23.00
2018-04-14T22:15:48.284Z,23.10
2018-04-14T22:18:19.063Z,23.00
2018-04-14T22:20:49.394Z,23.50
2018-04-14T22:23:19.684Z,22.90
2018-04-14T22:25:49.997Z,23.00
2018-04-14T22:28:20.442Z,23.00
2018-04-14T22:30:50.858Z,23.00
2018-04-14T22:33:21.211Z,23.00
2018-04-14T22:35:51.614Z,23.20
2018-04-14T22:38:21.971Z,23.00
2018-04-14T22:40:53.033Z,22.90
2018-04-14T22:43:23.390Z,22.90
2018-04-14T22:45:53.678Z,22.90
2018-04-14T22:48:24.773Z,23.10
2018-04-14T22:50:55.060Z,23.10
2018-04-14T22:53:25.363Z,22.90
2018-04-14T22:55:56.416Z,22.90
2018-04-14T22:58:26.703Z,22.80
2018-04-14T23:00:57.018Z,22.90
2018-04-14T23:03:27.314Z,23.00
2018-04-14T23:05:57.614Z,22.90
2018-04-14T23:08:27.930Z,22.90
2018-04-14T23:10:59.674Z,22.80
2018-04-14T23:13:30.804Z,22.90
2018-04-14T23:16:01.082Z,22.80
2018-04-14T23:18:31.664Z,22.90
2018-04-14T23:21:02.943Z,22.90
2018-04-14T23:23:33.800Z,22.80
2018-04-14T23:26:04.107Z,22.80
2018-04-14T23:28:34.416Z,22.80
2018-04-14T23:31:05.467Z,22.80
2018-04-14T23:33:35.775Z,22.80
2018-04-14T23:36:06.834Z,23.00
2018-04-14T23:38:37.763Z,23.00
2018-04-14T23:41:08.491Z,22.90
2018-04-14T23:43:39.682Z,22.70
2018-04-14T23:46:10.230Z,22.70
2018-04-14T23:48:40.542Z,22.90
2018-04-14T23:51:10.827Z,22.70
2018-04-14T23:53:41.134Z,22.90
2018-04-14T23:56:12.370Z,22.70
2018-04-14T23:58:42.743Z,22.70
